Time;durP1;ratioP1;P1;durP2;ratioP2;P2;SDS_P1;SDS_P2;PMS_P1;PMS_P2;Temp;Humidity;BMP_temperature;BMP_pressure;BME280_temperature;BME280_humidity;BME280_pressure;Samples;Min_cycle;Max_cycle;Signal;HPM_P1;HPM_P2
2022/07/07 00:01:51;;;;;;;3.20;1.20;;;;;;;;;;4832226;29;20022;-60
2022/07/07 00:04:16;;;;;;;4.28;1.50;;;;;;;;;;4832224;29;20474;-63
2022/07/07 00:06:42;;;;;;;2.35;1.15;;;;;;;;;;4830557;29;20475;-62
2022/07/07 00:09:07;;;;;;;4.82;1.25;;;;;;;;;;4815672;29;20040;-61
2022/07/07 00:11:33;;;;;;;5.13;1.73;;;;;;;;;;4832512;29;20129;-59
2022/07/07 00:13:58;;;;;;;3.63;1.08;;;;;;;;;;4831521;29;20033;-62
2022/07/07 00:16:24;;;;;;;2.95;0.90;;;;;;;;;;4831552;29;20087;-62
2022/07/07 00:18:50;;;;;;;3.35;1.17;;;;;;;;;;4801426;29;20034;-61
2022/07/07 00:21:16;;;;;;;5.05;1.20;;;;;;;;;;4835165;29;20904;-62
2022/07/07 00:23:42;;;;;;;2.70;1.20;;;;;;;;;;4833004;29;20022;-60
2022/07/07 00:26:07;;;;;;;1.58;1.13;;;;;;;;;;4832100;29;21273;-60
2022/07/07 00:28:33;;;;;;;1.50;1.05;;;;;;;;;;4833396;29;20030;-59
2022/07/07 00:30:58;;;;;;;5.75;1.30;;;;;;;;;;4830724;29;20030;-59
2022/07/07 00:33:24;;;;;;;1.92;1.30;;;;;;;;;;4834183;29;20495;-61
2022/07/07 00:35:49;;;;;;;2.58;1.10;;;;;;;;;;4833417;29;20030;-61
2022/07/07 00:38:15;;;;;;;3.33;1.15;;;;;;;;;;4828853;29;20064;-62
2022/07/07 00:40:40;;;;;;;2.95;1.10;;;;;;;;;;4835160;29;20030;-61
2022/07/07 00:43:06;;;;;;;4.82;1.23;;;;;;;;;;4831448;29;20053;-61
2022/07/07 00:45:31;;;;;;;4.80;1.05;;;;;;;;;;4829872;29;20034;-60
2022/07/07 00:47:58;;;;;;;5.88;1.20;;;;;;;;;;4833846;29;20130;-62
2022/07/07 00:50:23;;;;;;;3.33;1.92;;;;;;;;;;4832551;29;20269;-61
2022/07/07 00:52:49;;;;;;;3.10;0.98;;;;;;;;;;4830490;29;20046;-60
2022/07/07 00:55:14;;;;;;;4.38;1.10;;;;;;;;;;4832955;29;20321;-61
2022/07/07 00:57:40;;;;;;;2.40;1.35;;;;;;;;;;4832960;29;20505;-62
2022/07/07 01:00:12;;;;;;;1.92;1.02;;;;;;;;;;4830584;29;20120;-61
2022/07/07 01:02:38;;;;;;;2.33;1.15;;;;;;;;;;4831497;29;20040;-60
2022/07/07 01:05:08;;;;;;;2.20;0.93;;;;;;;;;;4832841;29;20117;-61
2022/07/07 01:07:34;;;;;;;3.85;1.45;;;;;;;;;;4815255;29;20041;-61
2022/07/07 01:10:01;;;;;;;3.08;1.38;;;;;;;;;;4832807;29;20037;-62
2022/07/07 01:12:32;;;;;;;2.55;1.15;;;;;;;;;;4815860;29;20038;-61
2022/07/07 01:14:58;;;;;;;2.03;1.20;;;;;;;;;;4832182;29;20050;-60
2022/07/07 01:17:23;;;;;;;3.92;1.20;;;;;;;;;;4830134;29;20121;-60
2022/07/07 01:19:49;;;;;;;2.60;1.23;;;;;;;;;;4832224;29;20409;-60
2022/07/07 01:22:15;;;;;;;3.00;1.58;;;;;;;;;;4828903;29;20066;-60
2022/07/07 01:24:41;;;;;;;2.13;1.50;;;;;;;;;;4834489;29;20033;-61
2022/07/07 01:27:15;;;;;;;5.72;1.10;;;;;;;;;;4827260;29;20038;-60
2022/07/07 01:29:46;;;;;;;2.78;0.70;;;;;;;;;;4828366;29;20048;-61
2022/07/07 01:32:12;;;;;;;3.78;0.85;;;;;;;;;;4832332;29;20487;-61
2022/07/07 01:34:42;;;;;;;1.98;0.75;;;;;;;;;;4829469;29;20090;-59
2022/07/07 01:37:08;;;;;;;1.48;0.80;;;;;;;;;;4828048;29;20128;-61
2022/07/07 01:39:36;;;;;;;2.53;0.88;;;;;;;;;;4829232;29;20113;-61
2022/07/07 01:42:02;;;;;;;1.25;0.90;;;;;;;;;;4828003;29;20410;-61
2022/07/07 01:44:30;;;;;;;3.97;1.23;;;;;;;;;;4828286;29;20049;-61
2022/07/07 01:46:56;;;;;;;2.38;0.80;;;;;;;;;;4831546;29;20050;-65
2022/07/07 01:49:21;;;;;;;2.42;0.70;;;;;;;;;;4826184;29;20601;-62
2022/07/07 01:51:47;;;;;;;1.67;0.73;;;;;;;;;;4829632;29;20041;-62
2022/07/07 01:54:12;;;;;;;4.13;1.00;;;;;;;;;;4831796;29;20045;-62
2022/07/07 01:56:37;;;;;;;2.47;1.00;;;;;;;;;;4833287;29;20098;-62
2022/07/07 01:59:03;;;;;;;6.13;1.20;;;;;;;;;;4827597;29;20521;-60
2022/07/07 02:01:29;;;;;;;2.88;0.88;;;;;;;;;;4834280;29;20104;-60
2022/07/07 02:03:54;;;;;;;2.10;0.60;;;;;;;;;;4832675;29;20040;-60
2022/07/07 02:06:20;;;;;;;3.50;1.00;;;;;;;;;;4832890;29;20486;-61
2022/07/07 02:08:45;;;;;;;3.28;1.00;;;;;;;;;;4829157;29;20433;-62
2022/07/07 02:11:13;;;;;;;0.60;0.60;;;;;;;;;;4832683;29;20037;-60
2022/07/07 02:13:44;;;;;;;2.85;0.90;;;;;;;;;;4835503;29;20025;-61
2022/07/07 02:16:10;;;;;;;6.05;0.90;;;;;;;;;;4833922;29;20104;-61
2022/07/07 02:18:38;;;;;;;4.00;1.27;;;;;;;;;;4835176;29;20045;-61
2022/07/07 02:21:05;;;;;;;1.60;0.95;;;;;;;;;;4832202;29;20034;-61
2022/07/07 02:23:31;;;;;;;2.83;0.90;;;;;;;;;;4833859;29;20036;-61
2022/07/07 02:25:57;;;;;;;2.17;1.10;;;;;;;;;;4835602;29;20090;-62
2022/07/07 02:28:23;;;;;;;2.33;0.80;;;;;;;;;;4829525;29;20038;-62
2022/07/07 02:30:52;;;;;;;1.23;0.70;;;;;;;;;;4829154;29;20032;-60
2022/07/07 02:33:18;;;;;;;5.05;0.77;;;;;;;;;;4832122;29;20030;-60
2022/07/07 02:35:43;;;;;;;5.40;1.13;;;;;;;;;;4834328;29;20080;-60
2022/07/07 02:38:08;;;;;;;1.98;0.70;;;;;;;;;;4832302;29;20508;-61
2022/07/07 02:40:37;;;;;;;1.05;0.80;;;;;;;;;;4828867;29;20048;-62
2022/07/07 02:43:02;;;;;;;3.72;0.82;;;;;;;;;;4827379;29;20037;-62
2022/07/07 02:45:28;;;;;;;2.80;0.60;;;;;;;;;;4830958;29;20386;-62
2022/07/07 02:47:53;;;;;;;2.35;0.63;;;;;;;;;;4811456;29;20522;-61
2022/07/07 02:50:19;;;;;;;1.83;0.90;;;;;;;;;;4833141;29;20026;-62
2022/07/07 02:52:44;;;;;;;2.10;0.90;;;;;;;;;;4831997;29;20642;-60
2022/07/07 02:55:10;;;;;;;1.90;0.85;;;;;;;;;;4833445;29;22036;-61
2022/07/07 02:57:36;;;;;;;3.05;0.88;;;;;;;;;;4831701;29;20097;-61
2022/07/07 03:00:06;;;;;;;2.10;1.00;;;;;;;;;;4830399;29;20041;-60
2022/07/07 03:02:32;;;;;;;1.85;0.95;;;;;;;;;;4834254;29;20077;-62
2022/07/07 03:04:57;;;;;;;5.93;0.70;;;;;;;;;;4833720;29;20510;-62
2022/07/07 03:07:23;;;;;;;1.23;0.80;;;;;;;;;;4835465;29;20038;-62
2022/07/07 03:09:49;;;;;;;1.38;0.70;;;;;;;;;;4836473;29;20061;-61
2022/07/07 03:12:15;;;;;;;4.85;0.95;;;;;;;;;;4832923;29;20499;-63
2022/07/07 03:14:40;;;;;;;1.90;0.80;;;;;;;;;;4832793;29;20042;-63
2022/07/07 03:17:06;;;;;;;2.38;0.80;;;;;;;;;;4833252;29;20042;-60
2022/07/07 03:19:31;;;;;;;1.27;0.70;;;;;;;;;;4832354;29;20116;-62
2022/07/07 03:21:57;;;;;;;2.97;0.90;;;;;;;;;;4829290;29;20052;-62
2022/07/07 03:24:22;;;;;;;4.53;0.90;;;;;;;;;;4833232;29;20494;-61
2022/07/07 03:26:48;;;;;;;3.95;1.15;;;;;;;;;;4832047;29;20378;-63
2022/07/07 03:29:13;;;;;;;2.63;0.85;;;;;;;;;;4831297;29;20040;-62
2022/07/07 03:31:39;;;;;;;4.15;1.00;;;;;;;;;;4832991;29;20059;-63
2022/07/07 03:34:04;;;;;;;2.15;0.88;;;;;;;;;;4833799;29;20030;-61
2022/07/07 03:36:29;;;;;;;3.17;0.93;;;;;;;;;;4834084;29;20117;-62
2022/07/07 03:38:55;;;;;;;3.80;1.23;;;;;;;;;;4832377;29;20515;-62
2022/07/07 03:41:20;;;;;;;1.13;0.88;;;;;;;;;;4831677;29;20134;-61
2022/07/07 03:43:45;;;;;;;1.77;0.90;;;;;;;;;;4829751;29;20058;-61
2022/07/07 03:46:11;;;;;;;2.72;0.90;;;;;;;;;;4828056;29;20033;-61
2022/07/07 03:48:36;;;;;;;3.78;0.90;;;;;;;;;;4832698;29;20049;-63
2022/07/07 03:51:02;;;;;;;3.20;0.95;;;;;;;;;;4830818;29;20040;-61
2022/07/07 03:53:27;;;;;;;0.60;0.60;;;;;;;;;;4829644;29;20141;-61
2022/07/07 03:55:52;;;;;;;1.33;0.82;;;;;;;;;;4831753;29;20509;-63
2022/07/07 03:58:18;;;;;;;6.07;1.10;;;;;;;;;;4826972;29;20038;-62
2022/07/07 04:00:43;;;;;;;3.95;0.60;;;;;;;;;;4830911;29;20038;-61
2022/07/07 04:03:09;;;;;;;1.83;0.85;;;;;;;;;;4832269;29;20034;-61
2022/07/07 04:05:35;;;;;;;3.75;0.88;;;;;;;;;;4830150;29;20026;-62
2022/07/07 04:08:01;;;;;;;1.75;1.08;;;;;;;;;;4831423;29;20041;-60
2022/07/07 04:10:26;;;;;;;1.40;1.00;;;;;;;;;;4828627;29;20482;-62
2022/07/07 04:12:53;;;;;;;2.67;0.93;;;;;;;;;;4832925;29;20387;-62
2022/07/07 04:15:19;;;;;;;3.17;1.10;;;;;;;;;;4830697;29;20037;-61
2022/07/07 04:17:44;;;;;;;3.38;0.82;;;;;;;;;;4830826;29;20274;-63
2022/07/07 04:20:10;;;;;;;1.85;0.80;;;;;;;;;;4830830;29;20085;-62
2022/07/07 04:22:35;;;;;;;2.95;0.82;;;;;;;;;;4831378;29;20142;-61
2022/07/07 04:25:01;;;;;;;3.75;0.93;;;;;;;;;;4832025;29;20026;-62
2022/07/07 04:27:26;;;;;;;2.17;0.88;;;;;;;;;;4829886;29;20151;-60
2022/07/07 04:29:51;;;;;;;2.30;0.85;;;;;;;;;;4833525;29;20451;-63
2022/07/07 04:32:17;;;;;;;2.83;1.00;;;;;;;;;;4829913;29;20040;-61
2022/07/07 04:34:42;;;;;;;3.22;1.05;;;;;;;;;;4829753;29;20048;-61
2022/07/07 04:37:07;;;;;;;4.70;1.35;;;;;;;;;;4828671;29;20026;-62
2022/07/07 04:39:33;;;;;;;3.08;1.10;;;;;;;;;;4828715;29;20561;-61
2022/07/07 04:41:59;;;;;;;2.85;1.05;;;;;;;;;;4829395;29;20512;-61
2022/07/07 04:44:24;;;;;;;2.53;1.17;;;;;;;;;;4832977;29;20040;-62
2022/07/07 04:46:50;;;;;;;2.88;0.93;;;;;;;;;;4828169;29;20026;-61
2022/07/07 04:49:15;;;;;;;4.60;1.10;;;;;;;;;;4832097;29;20140;-61
2022/07/07 04:51:40;;;;;;;2.35;1.10;;;;;;;;;;4831978;29;20065;-62
2022/07/07 04:54:06;;;;;;;2.70;0.95;;;;;;;;;;4834000;29;20034;-61
2022/07/07 04:56:31;;;;;;;2.58;1.00;;;;;;;;;;4833461;29;20479;-61
2022/07/07 04:58:56;;;;;;;1.50;0.80;;;;;;;;;;4829610;29;20232;-61
2022/07/07 05:01:22;;;;;;;2.15;0.98;;;;;;;;;;4830884;29;20033;-60
2022/07/07 05:03:47;;;;;;;3.15;1.10;;;;;;;;;;4833082;29;20041;-59
2022/07/07 05:06:13;;;;;;;1.95;1.23;;;;;;;;;;4829671;29;20030;-63
2022/07/07 05:08:39;;;;;;;2.05;1.10;;;;;;;;;;4828150;29;20368;-63
2022/07/07 05:11:05;;;;;;;3.00;1.25;;;;;;;;;;4832200;29;20037;-62
2022/07/07 05:13:30;;;;;;;3.08;1.20;;;;;;;;;;4828066;29;20037;-63
2022/07/07 05:15:56;;;;;;;2.88;1.00;;;;;;;;;;4831333;29;20030;-62
2022/07/07 05:18:22;;;;;;;3.60;1.17;;;;;;;;;;4828779;29;20030;-61
2022/07/07 05:20:47;;;;;;;2.67;1.35;;;;;;;;;;4829413;29;20043;-62
2022/07/07 05:23:13;;;;;;;4.10;1.63;;;;;;;;;;4831669;29;20086;-62
2022/07/07 05:25:38;;;;;;;4.88;1.20;;;;;;;;;;4831671;29;20156;-62
2022/07/07 05:28:04;;;;;;;2.70;1.35;;;;;;;;;;4815381;29;20098;-60
2022/07/07 05:30:29;;;;;;;3.75;1.58;;;;;;;;;;4831324;29;20581;-61
2022/07/07 05:32:55;;;;;;;3.25;1.30;;;;;;;;;;4830548;29;20121;-62
2022/07/07 05:35:20;;;;;;;4.72;1.52;;;;;;;;;;4829783;29;20445;-61
2022/07/07 05:37:46;;;;;;;1.30;1.10;;;;;;;;;;4830529;29;20040;-61
2022/07/07 05:40:12;;;;;;;3.95;1.00;;;;;;;;;;4830320;29;20517;-62
2022/07/07 05:42:38;;;;;;;5.53;1.25;;;;;;;;;;4828328;29;20459;-61
2022/07/07 05:45:04;;;;;;;4.25;1.23;;;;;;;;;;4832471;29;20034;-62
2022/07/07 05:47:30;;;;;;;4.50;1.92;;;;;;;;;;4829589;29;20112;-62
2022/07/07 05:49:55;;;;;;;7.07;1.23;;;;;;;;;;4831611;29;20137;-61
2022/07/07 05:52:21;;;;;;;3.67;1.25;;;;;;;;;;4833325;29;20033;-62
2022/07/07 05:54:46;;;;;;;3.63;1.30;;;;;;;;;;4832234;29;20134;-61
2022/07/07 05:57:11;;;;;;;4.82;1.20;;;;;;;;;;4830457;29;20863;-61
2022/07/07 05:59:37;;;;;;;3.42;1.20;;;;;;;;;;4832450;29;20478;-62
2022/07/07 06:02:02;;;;;;;2.70;1.30;;;;;;;;;;4829780;29;20038;-61
2022/07/07 06:04:28;;;;;;;4.97;1.45;;;;;;;;;;4828918;29;20038;-62
2022/07/07 06:06:53;;;;;;;7.80;1.38;;;;;;;;;;4830910;29;20379;-61
2022/07/07 06:09:18;;;;;;;4.40;1.95;;;;;;;;;;4829794;29;20174;-62
2022/07/07 06:11:44;;;;;;;3.28;1.50;;;;;;;;;;4829920;29;20097;-64
2022/07/07 06:14:10;;;;;;;4.05;1.75;;;;;;;;;;4830039;29;20120;-62
2022/07/07 06:16:38;;;;;;;5.93;2.95;;;;;;;;;;4830631;29;20041;-61
2022/07/07 06:19:08;;;;;;;6.65;2.10;;;;;;;;;;4831082;29;20669;-62
2022/07/07 06:21:34;;;;;;;8.32;1.77;;;;;;;;;;4830135;29;20115;-60
2022/07/07 06:23:59;;;;;;;8.85;2.28;;;;;;;;;;4833322;29;20045;-60
2022/07/07 06:26:25;;;;;;;5.57;2.13;;;;;;;;;;4830740;29;20669;-62
2022/07/07 06:28:50;;;;;;;8.30;2.08;;;;;;;;;;4829564;29;20037;-61
2022/07/07 06:31:16;;;;;;;5.68;1.88;;;;;;;;;;4831211;29;20045;-61
2022/07/07 06:33:41;;;;;;;4.25;1.58;;;;;;;;;;4831430;29;20046;-62
2022/07/07 06:36:07;;;;;;;5.03;1.58;;;;;;;;;;4830539;29;20034;-60
2022/07/07 06:38:33;;;;;;;2.75;1.27;;;;;;;;;;4832653;29;20200;-62
2022/07/07 06:40:59;;;;;;;5.25;1.65;;;;;;;;;;4833945;29;20033;-63
2022/07/07 06:43:25;;;;;;;4.78;1.30;;;;;;;;;;4836668;29;20041;-60
2022/07/07 06:45:50;;;;;;;4.07;1.52;;;;;;;;;;4838743;29;20046;-62
2022/07/07 06:48:16;;;;;;;2.95;1.30;;;;;;;;;;4834923;29;20198;-61
2022/07/07 06:50:41;;;;;;;7.72;1.70;;;;;;;;;;4831817;29;20034;-61
2022/07/07 06:53:07;;;;;;;4.20;1.60;;;;;;;;;;4834375;29;20049;-62
2022/07/07 06:55:32;;;;;;;4.22;1.60;;;;;;;;;;4831888;29;20038;-61
2022/07/07 06:57:58;;;;;;;4.20;1.65;;;;;;;;;;4832852;29;20061;-60
2022/07/07 07:00:24;;;;;;;8.93;1.73;;;;;;;;;;4833341;29;20037;-62
2022/07/07 07:02:49;;;;;;;4.80;1.77;;;;;;;;;;4835108;29;20104;-63
2022/07/07 07:05:15;;;;;;;6.97;1.70;;;;;;;;;;4835983;29;20431;-61
2022/07/07 07:07:41;;;;;;;4.63;1.38;;;;;;;;;;4815745;29;20048;-60
2022/07/07 07:10:07;;;;;;;7.47;1.98;;;;;;;;;;4835701;29;20038;-61
2022/07/07 07:12:33;;;;;;;4.85;1.92;;;;;;;;;;4831781;29;20560;-62
2022/07/07 07:14:58;;;;;;;2.72;1.35;;;;;;;;;;4834007;29;20037;-61
2022/07/07 07:17:24;;;;;;;3.55;1.60;;;;;;;;;;4821228;29;20034;-61
2022/07/07 07:19:50;;;;;;;5.63;1.48;;;;;;;;;;4831333;29;20073;-62
2022/07/07 07:22:15;;;;;;;4.40;1.25;;;;;;;;;;4835372;29;20494;-62
2022/07/07 07:24:41;;;;;;;2.35;1.27;;;;;;;;;;4834676;29;20116;-63
2022/07/07 07:27:06;;;;;;;3.22;1.20;;;;;;;;;;4833920;29;20040;-62
2022/07/07 07:29:32;;;;;;;7.13;1.50;;;;;;;;;;4832240;29;20034;-62
2022/07/07 07:31:57;;;;;;;2.65;1.20;;;;;;;;;;4834199;29;20055;-62
2022/07/07 07:34:22;;;;;;;2.97;1.50;;;;;;;;;;4835107;29;20107;-62
2022/07/07 07:36:48;;;;;;;2.45;1.60;;;;;;;;;;4835520;29;20053;-60
2022/07/07 07:39:13;;;;;;;2.70;1.40;;;;;;;;;;4833240;29;20597;-61
2022/07/07 07:41:39;;;;;;;4.75;1.30;;;;;;;;;;4834570;29;20026;-62
2022/07/07 07:44:04;;;;;;;2.25;1.42;;;;;;;;;;4818805;29;20402;-61
2022/07/07 07:46:30;;;;;;;3.35;1.60;;;;;;;;;;4835809;29;20040;-61
2022/07/07 07:48:55;;;;;;;4.07;1.33;;;;;;;;;;4832247;29;20034;-62
2022/07/07 07:51:21;;;;;;;5.15;1.30;;;;;;;;;;4836593;29;20140;-62
2022/07/07 07:53:46;;;;;;;1.75;1.50;;;;;;;;;;4828763;29;20034;-62
2022/07/07 07:56:11;;;;;;;2.25;1.40;;;;;;;;;;4832873;29;20097;-62
2022/07/07 07:58:37;;;;;;;3.03;1.20;;;;;;;;;;4829498;29;20522;-61
2022/07/07 08:01:03;;;;;;;5.85;1.27;;;;;;;;;;4833805;29;21736;-62
2022/07/07 08:03:29;;;;;;;5.95;1.35;;;;;;;;;;4820107;29;20053;-62
2022/07/07 08:05:55;;;;;;;3.58;1.48;;;;;;;;;;4833758;29;20117;-62
2022/07/07 08:08:20;;;;;;;2.35;1.30;;;;;;;;;;4834550;29;20406;-61
2022/07/07 08:10:46;;;;;;;3.47;1.58;;;;;;;;;;4835494;29;20063;-60
2022/07/07 08:13:11;;;;;;;2.90;1.55;;;;;;;;;;4833810;29;20768;-61
2022/07/07 08:15:37;;;;;;;2.00;1.40;;;;;;;;;;4812874;29;20049;-62
2022/07/07 08:18:03;;;;;;;2.78;1.20;;;;;;;;;;4833719;29;20058;-62
2022/07/07 08:20:29;;;;;;;2.90;1.30;;;;;;;;;;4834811;29;20383;-62
2022/07/07 08:22:55;;;;;;;2.28;1.40;;;;;;;;;;4814251;29;21081;-62
2022/07/07 08:25:21;;;;;;;4.03;1.33;;;;;;;;;;4831015;29;20030;-62
2022/07/07 08:27:47;;;;;;;5.40;1.30;;;;;;;;;;4829592;29;20035;-62
2022/07/07 08:30:13;;;;;;;3.05;1.35;;;;;;;;;;4834229;29;20037;-61
2022/07/07 08:32:39;;;;;;;2.45;1.30;;;;;;;;;;4834512;29;20026;-62
2022/07/07 08:35:05;;;;;;;6.20;1.30;;;;;;;;;;4833044;29;20398;-62
2022/07/07 08:37:31;;;;;;;3.22;1.88;;;;;;;;;;4833863;29;20041;-63
2022/07/07 08:39:56;;;;;;;3.95;1.55;;;;;;;;;;4833130;29;20044;-62
2022/07/07 08:42:22;;;;;;;2.50;1.40;;;;;;;;;;4831060;29;20531;-62
2022/07/07 08:44:47;;;;;;;4.03;1.52;;;;;;;;;;4830883;29;21993;-62
2022/07/07 08:47:13;;;;;;;2.85;1.70;;;;;;;;;;4828455;29;20071;-62
2022/07/07 08:49:39;;;;;;;4.75;1.50;;;;;;;;;;4831027;29;20133;-61
2022/07/07 08:52:05;;;;;;;2.85;1.50;;;;;;;;;;4829287;29;20117;-61
2022/07/07 08:54:32;;;;;;;2.58;1.52;;;;;;;;;;4833472;29;20066;-61
2022/07/07 08:56:58;;;;;;;2.50;1.20;;;;;;;;;;4829654;29;20103;-60
2022/07/07 08:59:23;;;;;;;2.40;1.40;;;;;;;;;;4814475;29;20058;-63
2022/07/07 09:01:57;;;;;;;2.10;1.00;;;;;;;;;;4831053;29;20038;-63
2022/07/07 09:04:23;;;;;;;2.45;1.27;;;;;;;;;;4835419;29;20144;-62
2022/07/07 09:07:00;;;;;;;5.32;1.50;;;;;;;;;;4813707;29;20034;-62
2022/07/07 09:09:44;;;;;;;2.75;1.42;;;;;;;;;;4833527;29;20486;-60
2022/07/07 09:12:12;;;;;;;2.60;1.08;;;;;;;;;;4832390;29;20034;-61
2022/07/07 09:14:42;;;;;;;1.58;1.20;;;;;;;;;;4832589;29;20106;-63
2022/07/07 09:17:28;;;;;;;2.20;1.15;;;;;;;;;;4831174;29;20090;-63
2022/07/07 09:20:06;;;;;;;3.83;1.67;;;;;;;;;;4829392;29;20025;-63
2022/07/07 09:22:51;;;;;;;2.58;1.40;;;;;;;;;;4833504;29;20067;-61
2022/07/07 09:25:20;;;;;;;1.40;1.20;;;;;;;;;;4833012;29;20536;-64
2022/07/07 09:27:49;;;;;;;3.95;1.00;;;;;;;;;;4828598;29;20563;-63
2022/07/07 09:30:34;;;;;;;6.03;1.20;;;;;;;;;;4831816;29;20069;-62
2022/07/07 09:33:11;;;;;;;3.78;1.00;;;;;;;;;;4831327;29;20406;-62
2022/07/07 09:38:23;;;;;;;1.33;0.63;;;;;;;;;;4833259;29;20036;-61
2022/07/07 09:40:51;;;;;;;4.53;0.80;;;;;;;;;;4834986;29;20501;-62
2022/07/07 09:43:18;;;;;;;1.67;0.82;;;;;;;;;;4832040;29;20167;-62
2022/07/07 09:45:47;;;;;;;1.92;0.80;;;;;;;;;;4828864;29;20030;-61
2022/07/07 09:48:12;;;;;;;1.48;0.70;;;;;;;;;;4831136;29;20049;-63
2022/07/07 09:50:39;;;;;;;1.40;0.63;;;;;;;;;;4830382;29;20034;-63
2022/07/07 09:53:08;;;;;;;1.67;0.80;;;;;;;;;;4830343;29;20048;-62
2022/07/07 09:55:33;;;;;;;0.93;0.50;;;;;;;;;;4831155;29;20052;-63
2022/07/07 09:57:59;;;;;;;0.80;0.60;;;;;;;;;;4827141;29;20952;-62
2022/07/07 10:00:25;;;;;;;0.98;0.82;;;;;;;;;;4829274;29;20036;-62
2022/07/07 10:02:51;;;;;;;0.50;0.50;;;;;;;;;;4831663;29;20121;-62
2022/07/07 10:05:18;;;;;;;2.13;0.70;;;;;;;;;;4834670;29;20026;-62
2022/07/07 10:07:47;;;;;;;0.50;0.32;;;;;;;;;;4830525;29;20113;-62
2022/07/07 10:10:18;;;;;;;1.02;0.70;;;;;;;;;;4831308;29;20068;-62
2022/07/07 10:12:45;;;;;;;1.52;0.63;;;;;;;;;;4829190;29;20031;-60
2022/07/07 10:15:11;;;;;;;1.25;0.80;;;;;;;;;;4831254;29;20128;-62
2022/07/07 10:17:39;;;;;;;0.88;0.80;;;;;;;;;;4831713;29;20037;-61
2022/07/07 10:20:06;;;;;;;0.90;0.80;;;;;;;;;;4832878;29;20120;-61
2022/07/07 10:22:32;;;;;;;1.10;0.75;;;;;;;;;;4830407;29;20065;-62
2022/07/07 10:25:00;;;;;;;1.33;1.08;;;;;;;;;;4832431;29;20030;-62
2022/07/07 10:27:27;;;;;;;2.42;0.70;;;;;;;;;;4830318;29;20042;-61
2022/07/07 10:29:58;;;;;;;1.02;0.68;;;;;;;;;;4831773;29;20038;-63
2022/07/07 10:32:23;;;;;;;0.70;0.70;;;;;;;;;;4830705;29;20053;-62
2022/07/07 10:34:50;;;;;;;1.65;0.60;;;;;;;;;;4834055;29;20070;-62
2022/07/07 10:37:17;;;;;;;0.90;0.90;;;;;;;;;;4830687;29;20030;-62
2022/07/07 10:39:45;;;;;;;2.00;1.20;;;;;;;;;;4830253;29;20349;-62
2022/07/07 10:42:36;;;;;;;1.40;0.70;;;;;;;;;;4825346;29;20033;-60
2022/07/07 10:45:02;;;;;;;1.10;0.85;;;;;;;;;;4826075;29;20113;-61
2022/07/07 10:47:29;;;;;;;2.10;0.70;;;;;;;;;;4827431;29;20219;-62
2022/07/07 10:49:55;;;;;;;1.63;0.65;;;;;;;;;;4828707;29;20046;-61
2022/07/07 10:52:27;;;;;;;2.40;0.47;;;;;;;;;;4830210;29;20081;-61
2022/07/07 10:54:55;;;;;;;0.82;0.40;;;;;;;;;;4830697;29;20455;-61
2022/07/07 10:57:22;;;;;;;3.42;0.38;;;;;;;;;;4822404;29;20422;-61
2022/07/07 11:00:01;;;;;;;2.17;0.40;;;;;;;;;;4828759;29;20025;-62
2022/07/07 11:02:29;;;;;;;1.80;0.45;;;;;;;;;;4830862;29;20498;-62
2022/07/07 11:04:55;;;;;;;0.60;0.20;;;;;;;;;;4830706;29;20049;-62
2022/07/07 11:07:24;;;;;;;2.35;0.40;;;;;;;;;;4830524;29;20037;-62
2022/07/07 11:10:01;;;;;;;1.35;0.60;;;;;;;;;;4826523;29;20041;-63
2022/07/07 11:12:43;;;;;;;0.75;0.32;;;;;;;;;;4832465;29;20102;-62
2022/07/07 11:15:15;;;;;;;0.30;0.30;;;;;;;;;;4828770;29;20428;-62
2022/07/07 11:17:52;;;;;;;0.80;0.28;;;;;;;;;;4830702;29;20038;-66
2022/07/07 11:20:26;;;;;;;1.73;0.28;;;;;;;;;;4827018;29;20534;-62
2022/07/07 11:22:53;;;;;;;0.73;0.50;;;;;;;;;;4827821;29;20033;-63
2022/07/07 11:25:23;;;;;;;2.40;0.70;;;;;;;;;;4831910;29;20490;-60
2022/07/07 11:27:51;;;;;;;1.20;0.50;;;;;;;;;;4832458;29;20391;-62
2022/07/07 11:30:21;;;;;;;1.98;0.50;;;;;;;;;;4832262;29;20439;-63
2022/07/07 11:32:47;;;;;;;0.77;0.30;;;;;;;;;;4831051;29;20033;-62
2022/07/07 11:35:13;;;;;;;2.95;0.52;;;;;;;;;;4829368;29;20040;-62
2022/07/07 11:37:42;;;;;;;1.75;0.60;;;;;;;;;;4832473;29;20041;-62
2022/07/07 11:40:13;;;;;;;1.00;0.70;;;;;;;;;;4833592;29;20042;-60
2022/07/07 11:42:41;;;;;;;1.60;0.73;;;;;;;;;;4828526;29;20048;-62
2022/07/07 11:45:21;;;;;;;2.15;0.90;;;;;;;;;;4835298;29;20032;-61
2022/07/07 11:47:48;;;;;;;1.08;0.60;;;;;;;;;;4832758;29;20037;-61
2022/07/07 11:50:13;;;;;;;0.95;0.90;;;;;;;;;;4832602;29;20506;-62
2022/07/07 11:52:55;;;;;;;2.28;0.80;;;;;;;;;;4832049;29;20022;-61
2022/07/07 11:55:22;;;;;;;3.30;0.73;;;;;;;;;;4831644;29;20183;-61
2022/07/07 11:57:55;;;;;;;1.42;0.50;;;;;;;;;;4832704;29;20038;-61
2022/07/07 12:00:22;;;;;;;2.40;0.50;;;;;;;;;;4831373;29;20094;-61
2022/07/07 12:02:50;;;;;;;0.90;0.30;;;;;;;;;;4830224;29;20038;-62
2022/07/07 12:05:21;;;;;;;2.25;0.45;;;;;;;;;;4832047;29;20444;-62
2022/07/07 12:08:05;;;;;;;1.95;0.40;;;;;;;;;;4835090;29;20086;-63
2022/07/07 12:10:33;;;;;;;2.70;0.50;;;;;;;;;;4830633;29;20518;-60
2022/07/07 12:13:01;;;;;;;1.63;0.50;;;;;;;;;;4831546;29;20395;-62
2022/07/07 12:15:34;;;;;;;1.30;0.60;;;;;;;;;;4832626;29;20031;-64
2022/07/07 12:18:01;;;;;;;2.22;0.52;;;;;;;;;;4831316;29;20045;-62
2022/07/07 12:20:26;;;;;;;2.30;0.60;;;;;;;;;;4829661;29;20042;-59
2022/07/07 12:22:56;;;;;;;2.38;0.60;;;;;;;;;;4833438;29;20037;-63
2022/07/07 12:25:31;;;;;;;2.55;0.80;;;;;;;;;;4816524;29;20030;-61
2022/07/07 12:28:05;;;;;;;1.27;0.60;;;;;;;;;;4831197;29;20021;-62
2022/07/07 12:30:33;;;;;;;2.03;0.75;;;;;;;;;;4832085;29;20382;-61
2022/07/07 12:32:59;;;;;;;1.55;0.63;;;;;;;;;;4833947;29;20562;-61
2022/07/07 12:35:27;;;;;;;1.10;0.70;;;;;;;;;;4831922;29;20027;-61
2022/07/07 12:37:52;;;;;;;3.28;0.75;;;;;;;;;;4831514;29;20060;-61
2022/07/07 12:40:18;;;;;;;2.35;1.05;;;;;;;;;;4832273;29;20730;-61
2022/07/07 12:42:46;;;;;;;3.25;1.00;;;;;;;;;;4835115;29;20026;-62
2022/07/07 12:45:13;;;;;;;4.63;1.00;;;;;;;;;;4834189;29;21756;-62
2022/07/07 12:47:52;;;;;;;2.08;0.82;;;;;;;;;;4832479;29;20690;-62
2022/07/07 12:50:19;;;;;;;2.03;1.15;;;;;;;;;;4835825;29;20514;-61
2022/07/07 12:53:02;;;;;;;1.60;0.50;;;;;;;;;;4832265;29;20034;-61
2022/07/07 12:55:35;;;;;;;1.75;0.55;;;;;;;;;;4834896;29;20044;-61
2022/07/07 12:58:05;;;;;;;2.25;0.60;;;;;;;;;;4831299;29;20038;-61
2022/07/07 13:00:30;;;;;;;3.17;0.60;;;;;;;;;;4830655;29;20034;-62
2022/07/07 13:02:56;;;;;;;2.17;0.60;;;;;;;;;;4834386;29;20439;-62
2022/07/07 13:05:21;;;;;;;0.50;0.30;;;;;;;;;;4815398;29;20040;-61
2022/07/07 13:07:47;;;;;;;1.48;0.50;;;;;;;;;;4802533;29;20554;-61
2022/07/07 13:10:12;;;;;;;1.95;0.70;;;;;;;;;;4832150;29;20389;-62
2022/07/07 13:12:39;;;;;;;2.05;0.60;;;;;;;;;;4831790;29;20041;-60
2022/07/07 13:15:05;;;;;;;1.83;0.68;;;;;;;;;;4828974;29;20186;-61
2022/07/07 13:17:31;;;;;;;3.00;0.80;;;;;;;;;;4831079;29;20038;-62
2022/07/07 13:19:56;;;;;;;2.00;0.60;;;;;;;;;;4832792;29;20062;-61
2022/07/07 13:22:21;;;;;;;3.08;0.68;;;;;;;;;;4833447;29;20030;-62
2022/07/07 13:24:47;;;;;;;3.97;0.90;;;;;;;;;;4830117;29;20735;-60
2022/07/07 13:27:12;;;;;;;1.40;0.80;;;;;;;;;;4832373;29;20095;-63
2022/07/07 13:29:38;;;;;;;8.63;0.80;;;;;;;;;;4828796;29;20085;-61
2022/07/07 13:32:03;;;;;;;1.85;0.70;;;;;;;;;;4829681;29;20175;-61
2022/07/07 13:34:29;;;;;;;2.22;0.60;;;;;;;;;;4832925;29;20033;-62
2022/07/07 13:36:55;;;;;;;1.83;0.50;;;;;;;;;;4830679;29;20540;-62
2022/07/07 13:39:20;;;;;;;1.88;0.57;;;;;;;;;;4832226;29;20443;-61
2022/07/07 13:41:46;;;;;;;3.25;0.65;;;;;;;;;;4833203;29;20045;-61
2022/07/07 13:44:11;;;;;;;2.22;0.60;;;;;;;;;;4832948;29;20124;-62
2022/07/07 13:46:36;;;;;;;0.77;0.38;;;;;;;;;;4831118;29;20068;-61
2022/07/07 13:49:02;;;;;;;2.33;0.50;;;;;;;;;;4830268;29;20034;-62
2022/07/07 13:51:27;;;;;;;1.38;0.65;;;;;;;;;;4829864;29;20109;-62
2022/07/07 13:53:53;;;;;;;1.27;0.57;;;;;;;;;;4830469;29;20041;-62
2022/07/07 13:56:18;;;;;;;4.07;0.60;;;;;;;;;;4830690;29;20042;-62
2022/07/07 13:58:43;;;;;;;2.58;0.90;;;;;;;;;;4833480;29;20403;-63
2022/07/07 14:01:09;;;;;;;0.82;0.63;;;;;;;;;;4828570;29;20033;-62
2022/07/07 14:03:34;;;;;;;2.63;0.80;;;;;;;;;;4832284;29;20086;-62
2022/07/07 14:05:59;;;;;;;2.05;0.60;;;;;;;;;;4832914;29;20463;-62
2022/07/07 14:08:25;;;;;;;3.65;0.70;;;;;;;;;;4829569;29;20523;-62
2022/07/07 14:10:51;;;;;;;2.08;0.70;;;;;;;;;;4829206;29;20025;-62
2022/07/07 14:13:16;;;;;;;1.33;0.75;;;;;;;;;;4831945;29;20049;-61
2022/07/07 14:15:45;;;;;;;4.95;0.98;;;;;;;;;;4829231;29;20094;-63
2022/07/07 14:18:10;;;;;;;2.83;0.75;;;;;;;;;;4831628;29;20742;-62
2022/07/07 14:20:36;;;;;;;1.23;0.75;;;;;;;;;;4831600;29;20069;-63
2022/07/07 14:23:01;;;;;;;1.73;0.68;;;;;;;;;;4829042;29;20118;-63
2022/07/07 14:25:27;;;;;;;1.20;0.70;;;;;;;;;;4830886;29;20574;-63
2022/07/07 14:27:52;;;;;;;2.10;0.70;;;;;;;;;;4829785;29;20122;-63
2022/07/07 14:30:17;;;;;;;2.83;1.00;;;;;;;;;;4829016;29;20402;-62
2022/07/07 14:32:43;;;;;;;0.90;0.70;;;;;;;;;;4828851;29;20475;-63
2022/07/07 14:35:08;;;;;;;1.77;0.65;;;;;;;;;;4817564;29;20067;-61
2022/07/07 14:37:33;;;;;;;4.60;0.75;;;;;;;;;;4833371;29;20025;-63
2022/07/07 14:39:59;;;;;;;3.33;0.70;;;;;;;;;;4827429;29;20482;-61
2022/07/07 14:42:25;;;;;;;1.25;0.80;;;;;;;;;;4828499;29;20133;-62
2022/07/07 14:44:51;;;;;;;2.53;0.80;;;;;;;;;;4826445;29;20045;-60